Impacts TAF Board
For situational awareness. Not to be used for flight planning purposes.
IDs:

KCVG - Cincinnati Intl, KY, US

Issued at 0704 UTC 24 Jan 2019
Updated at 0708 UTC 24 Jan 2019
Potential Impact None Slight Moderate High
Time0652Z 24/08Z 24/09Z 24/10Z 24/11Z 24/12Z 24/13Z 24/14Z 24/15Z 24/16Z 24/17Z 24/18Z 24/19Z 24/20Z>>
Type OBS PRVL PRVL PRVL PRVL PRVL PRVL PRVL PRVL PRVL PRVL PRVL PRVL PRVL
VIS 3 3 >6 >6 >6 >6 >6 >6 >6 >6 >6 >6 >6 >6
CIG 7 7 8 8 8 8 15 15 15 15 15 25 25 25
Cover OVC OVC OVC OVC OVC OVC BKN BKN BKN BKN BKN BKN BKN BKN
FltCat IFR IFR IFR IFR IFR IFR MVFR MVFR MVFR MVFR MVFR MVFR MVFR MVFR
WX -SN BR -SN BR -- -- -- -- -- -- -- -- -- -- -- --
WDir 310 310 300 300 300 300 290 290 290 290 290 260 260 260
WSpd 13 13 9 9 9 9 9 9 9 9 9 8 8 8
WGst -- -- -- -- -- -- -- -- -- -- -- -- -- --
Raw TAF
KCVG 240704Z 2407/2512 31013KT 3SM -SN BR OVC007
  FM240900 30009KT P6SM OVC008
  FM241300 29009KT P6SM BKN015
  FM241800 26008KT P6SM BKN025
  FM250300 28010G18KT P6SM OVC015
  FM251000 28013G21KT P6SM BKN025
  FM251100 28013KT P6SM SCT050


Raw METAR
KCVG 240652Z 31013KT 3SM -SN BR OVC007 M02/M03 A2973 RMK AO2 TWR VIS 4 SLP070 P0001 T10171033
KCVG 240613Z 31012G18KT 1 1/2SM -SN BR BKN009 OVC013 M01/M03 A2973 RMK AO2 TWR VIS 2 P0000 T10111028
KCVG 240552Z 30014KT 2SM -SN BR SCT009 OVC014 M01/M03 A2973 RMK AO2 SFC VIS 2 1/2 FZDZB20E50SNE10B50PLB10E20 CIG 009 36R SLP070 931000 P0001 60012 I1000 I6000 T10111028 10044 21011 50000
KCVG 240522Z 31012KT 2SM -FZDZ BR BKN008 OVC013 M01/M02 A2974 RMK AO2 SFC VIS 3 FZDZB20SNE10PLB10E20 PCPN VRY LGT P0000 I1000 T10061022
KCVG 240511Z 30010KT 2SM -PL BR OVC006 M01/M02 A2974 RMK AO2 SNE10PLB10 P0000 T10061017
KCVG 240452Z 29012KT 2SM -SN BR OVC005 00/M02 A2975 RMK AO2 SLP076 RAE31SNB31 P0001 T00001017 401110000

METAR Board
Radar Display
Forecast Discussion
For situational awareness. Not to be used for flight planning purposes.